Time;durP1;ratioP1;P1;durP2;ratioP2;P2;SDS_P1;SDS_P2;PMS_P1;PMS_P2;Temp;Humidity;BMP_temperature;BMP_pressure;BME280_temperature;BME280_humidity;BME280_pressure;Samples;Min_cycle;Max_cycle;Signal;HPM_P1;HPM_P2
2022/10/18 00:00:38;;;;;;;;;20.40;19.00;;;;;17.14;57.54;99804.84;6220364;28;99058;-63
2022/10/18 00:03:42;;;;;;;;;19.50;19.00;;;;;17.16;57.10;99815.47;6221133;28;96271;-63
2022/10/18 00:06:46;;;;;;;;;20.00;18.00;;;;;17.16;57.32;99805.41;6197834;28;96451;-63
2022/10/18 00:09:50;;;;;;;;;17.20;16.00;;;;;17.12;57.87;99806.13;6209270;28;96316;-63
2022/10/18 00:12:54;;;;;;;;;18.00;17.00;;;;;17.15;57.79;99806.47;6217613;28;96888;-63
2022/10/18 00:15:59;;;;;;;;;19.20;17.60;;;;;17.14;58.26;99796.66;6237372;28;96207;-63
2022/10/18 00:19:02;;;;;;;;;18.00;16.50;;;;;17.18;58.61;99799.72;6193122;28;98517;-63
2022/10/18 00:22:05;;;;;;;;;16.20;15.20;;;;;17.16;58.60;99796.41;6212152;28;98731;-63
2022/10/18 00:25:10;;;;;;;;;17.20;16.20;;;;;17.15;58.22;99800.22;6233535;28;96381;-63
2022/10/18 00:28:13;;;;;;;;;18.25;16.50;;;;;17.14;58.78;99795.81;6226277;28;96358;-63
2022/10/18 00:31:19;;;;;;;;;14.00;13.00;;;;;17.15;58.51;99784.66;6223497;28;96610;-63
2022/10/18 00:34:22;;;;;;;;;19.60;16.80;;;;;17.14;57.14;99779.47;6213174;28;96848;-62
2022/10/18 00:37:25;;;;;;;;;19.80;18.80;;;;;17.14;57.49;99782.22;6220160;28;96320;-63
2022/10/18 00:40:30;;;;;;;;;23.00;20.25;;;;;17.14;58.55;99784.94;6221430;28;96493;-63
2022/10/18 00:43:48;;;;;;;;;17.00;16.00;;;;;17.16;57.77;99780.03;6221333;28;96962;-63
2022/10/18 00:46:54;;;;;;;;;17.00;17.00;;;;;17.16;57.68;99777.31;6226740;28;96364;-63
2022/10/18 00:50:02;;;;;;;;;19.00;17.00;;;;;17.17;57.97;99776.25;6215466;28;96572;-63
2022/10/18 00:53:10;;;;;;;;;18.00;17.00;;;;;17.17;58.19;99781.72;6216932;28;96530;-62
2022/10/18 00:56:15;;;;;;;;;17.00;17.00;;;;;17.17;57.99;99777.09;6217953;28;96491;-63
2022/10/18 00:59:19;;;;;;;;;20.00;17.20;;;;;17.16;58.06;99775.44;6211141;28;98654;-63
2022/10/18 01:02:22;;;;;;;;;20.00;17.00;;;;;17.09;58.16;99774.75;6194788;28;96515;-64
2022/10/18 01:05:26;;;;;;;;;21.40;19.00;;;;;17.07;58.65;99768.72;6213830;28;97517;-63
2022/10/18 01:08:44;;;;;;;;;19.80;18.00;;;;;16.99;58.18;99774.56;6217315;28;96481;-62
2022/10/18 01:12:09;;;;;;;;;19.00;18.00;;;;;16.92;59.35;99768.41;6237522;28;97145;-62
2022/10/18 01:15:19;;;;;;;;;20.00;17.20;;;;;16.73;58.99;99773.19;6218580;28;96472;-63
2022/10/18 01:18:34;;;;;;;;;17.00;16.00;;;;;16.66;57.89;99769.78;6219041;28;96418;-63
2022/10/18 01:21:44;;;;;;;;;16.50;16.50;;;;;16.53;57.61;99780.06;6216060;28;96239;-63
2022/10/18 01:25:03;;;;;;;;;17.60;15.60;;;;;16.35;57.38;99772.88;6191842;28;96685;-63
2022/10/18 01:28:20;;;;;;;;;16.00;15.00;;;;;16.22;57.24;99778.56;6212605;28;96476;-62
2022/10/18 01:31:30;;;;;;;;;15.50;14.00;;;;;16.10;57.49;99780.44;6205458;28;96819;-62
2022/10/18 01:34:37;;;;;;;;;17.00;16.00;;;;;16.03;57.29;99781.38;6217490;28;99763;-63
2022/10/18 01:37:45;;;;;;;;;18.00;16.00;;;;;15.99;58.04;99771.19;6214753;28;96299;-63
2022/10/18 01:40:51;;;;;;;;;14.80;14.00;;;;;15.97;58.35;99770.63;6221399;28;96357;-63
2022/10/18 01:43:58;;;;;;;;;16.60;14.60;;;;;15.89;57.81;99774.50;6215247;28;99078;-63
2022/10/18 01:47:05;;;;;;;;;17.80;15.00;;;;;15.84;57.88;99776.25;6218406;28;96331;-63
2022/10/18 01:50:09;;;;;;;;;16.40;15.40;;;;;15.73;57.86;99761.59;6200079;28;96297;-63
2022/10/18 01:53:28;;;;;;;;;18.00;16.00;;;;;15.75;58.29;99774.94;6219275;28;96335;-63
2022/10/18 01:56:42;;;;;;;;;17.00;16.00;;;;;15.68;58.20;99768.81;6228172;28;96337;-63
2022/10/18 01:59:54;;;;;;;;;15.00;14.00;;;;;15.61;57.93;99763.47;6207733;28;97052;-62
2022/10/18 02:03:06;;;;;;;;;15.00;13.00;;;;;15.57;58.32;99765.81;6214095;28;98394;-63
2022/10/18 02:06:18;;;;;;;;;16.00;15.00;;;;;15.56;57.93;99766.88;6200614;28;96687;-63
2022/10/18 02:09:33;;;;;;;;;19.00;17.40;;;;;15.52;57.87;99765.69;6196577;28;98345;-63
2022/10/18 02:12:41;;;;;;;;;19.40;18.00;;;;;15.53;59.04;99766.53;6226017;28;96368;-62
2022/10/18 02:15:48;;;;;;;;;18.00;17.00;;;;;15.52;58.72;99773.84;6232188;28;96444;-62
2022/10/18 02:19:00;;;;;;;;;17.00;14.20;;;;;15.47;58.63;99768.25;6222625;28;98601;-63
2022/10/18 02:22:05;;;;;;;;;18.00;15.25;;;;;15.40;58.52;99763.94;6209138;28;98366;-62
2022/10/18 02:25:16;;;;;;;;;16.00;14.00;;;;;15.41;58.74;99765.63;6204460;28;96827;-63
2022/10/18 02:28:20;;;;;;;;;14.00;13.00;;;;;15.48;59.15;99767.19;6221223;28;96727;-64
2022/10/18 02:31:28;;;;;;;;;16.75;15.75;;;;;15.51;59.21;99771.34;6226168;28;96242;-63
2022/10/18 02:34:39;;;;;;;;;15.00;14.80;;;;;15.55;59.07;99761.66;6201905;28;97351;-62
2022/10/18 02:37:43;;;;;;;;;16.00;16.00;;;;;15.55;59.05;99761.66;6221041;28;96323;-64
2022/10/18 02:40:46;;;;;;;;;22.00;18.25;;;;;15.58;60.57;99761.22;6207391;28;96672;-62
2022/10/18 02:43:49;;;;;;;;;15.00;14.00;;;;;15.69;60.74;99767.72;6224292;28;96554;-63
2022/10/18 02:46:53;;;;;;;;;16.20;16.00;;;;;15.71;60.69;99761.00;6190619;28;98692;-63
2022/10/18 02:49:58;;;;;;;;;17.60;16.60;;;;;15.79;61.05;99771.53;6206623;28;96374;-63
2022/10/18 02:53:01;;;;;;;;;20.00;17.80;;;;;15.83;60.42;99763.75;6232661;28;96332;-63
2022/10/18 02:56:05;;;;;;;;;21.00;17.00;;;;;15.85;60.39;99772.47;6220122;28;96880;-63
2022/10/18 02:59:08;;;;;;;;;19.00;19.00;;;;;15.85;60.57;99769.75;6198406;28;96518;-63
2022/10/18 03:02:12;;;;;;;;;20.00;20.00;;;;;15.84;60.52;99771.66;6214392;28;96308;-63
2022/10/18 03:05:17;;;;;;;;;18.00;15.60;;;;;15.83;60.81;99767.25;6214917;28;96958;-62
2022/10/18 03:08:23;;;;;;;;;19.67;17.00;;;;;15.84;60.90;99768.94;6194262;28;98610;-66
2022/10/18 03:11:26;;;;;;;;;18.60;17.80;;;;;15.85;60.79;99772.47;6203831;28;96944;-67
2022/10/18 03:14:29;;;;;;;;;18.00;17.00;;;;;15.84;60.71;99770.81;6205448;28;98508;-66
2022/10/18 03:17:33;;;;;;;;;20.60;19.40;;;;;15.87;60.42;99770.38;6202085;28;98850;-66
2022/10/18 03:20:38;;;;;;;;;20.00;19.25;;;;;15.85;60.28;99773.31;6222169;28;96317;-66
2022/10/18 03:23:41;;;;;;;;;21.60;19.60;;;;;15.81;60.17;99766.69;6212913;28;96724;-66
2022/10/18 03:26:44;;;;;;;;;20.60;20.00;;;;;15.77;60.12;99770.94;6202270;28;99929;-66
2022/10/18 03:29:48;;;;;;;;;20.00;19.00;;;;;15.72;59.95;99776.25;6221902;28;96503;-66
2022/10/18 03:32:53;;;;;;;;;20.00;18.00;;;;;15.62;59.60;99758.84;6217312;28;97523;-66
2022/10/18 03:35:58;;;;;;;;;21.00;20.00;;;;;15.64;59.96;99765.69;6214337;28;97240;-66
2022/10/18 03:39:01;;;;;;;;;20.00;18.00;;;;;15.63;59.75;99763.22;6230819;28;96447;-67
2022/10/18 03:42:04;;;;;;;;;21.00;18.00;;;;;15.62;59.37;99770.56;6220695;28;97628;-66
2022/10/18 03:45:08;;;;;;;;;18.40;17.00;;;;;15.64;58.90;99768.41;6215829;28;97056;-66
2022/10/18 03:48:12;;;;;;;;;16.67;16.00;;;;;15.68;58.93;99766.09;6216471;28;96523;-67
2022/10/18 03:51:17;;;;;;;;;16.67;16.00;;;;;15.74;59.27;99767.84;6224895;28;97033;-66
2022/10/18 03:54:20;;;;;;;;;15.33;14.33;;;;;15.81;58.86;99766.69;6218221;28;96425;-66
2022/10/18 03:57:24;;;;;;;;;17.00;17.00;;;;;15.87;59.41;99764.94;6222028;28;96277;-67
2022/10/18 04:00:27;;;;;;;;;16.00;16.00;;;;;15.93;59.19;99762.06;6217338;28;98389;-66
2022/10/18 04:03:31;;;;;;;;;17.40;16.00;;;;;15.98;59.07;99764.91;6223475;28;96840;-67
2022/10/18 04:06:35;;;;;;;;;18.00;17.00;;;;;16.04;58.51;99769.44;6227170;28;96366;-67
2022/10/18 04:09:38;;;;;;;;;14.50;13.50;;;;;16.09;58.95;99771.44;6217377;27;96378;-65
2022/10/18 04:12:42;;;;;;;;;16.00;15.00;;;;;16.19;59.28;99760.78;6214322;28;96339;-66
2022/10/18 04:15:45;;;;;;;;;14.00;13.00;;;;;16.29;59.30;99763.75;6218816;28;96680;-67
2022/10/18 04:18:48;;;;;;;;;14.60;14.60;;;;;16.37;58.97;99760.66;6222455;28;96411;-66
2022/10/18 04:21:54;;;;;;;;;16.00;15.00;;;;;16.46;58.66;99761.97;6212138;28;96646;-66
2022/10/18 04:24:57;;;;;;;;;19.00;16.40;;;;;16.52;58.60;99765.63;6221345;28;96989;-66
2022/10/18 04:28:00;;;;;;;;;13.40;12.00;;;;;16.56;58.46;99761.38;6213768;28;96647;-67
2022/10/18 04:31:04;;;;;;;;;15.00;14.00;;;;;16.72;58.11;99765.25;6201708;28;96635;-67
2022/10/18 04:34:07;;;;;;;;;17.00;14.20;;;;;16.81;57.85;99759.19;6219900;28;96513;-66
2022/10/18 04:37:12;;;;;;;;;16.00;15.00;;;;;16.73;57.35;99748.69;6216346;28;96438;-67
2022/10/18 04:40:15;;;;;;;;;17.25;15.25;;;;;16.83;56.96;99761.69;6221196;28;96846;-66
2022/10/18 04:43:19;;;;;;;;;15.20;12.20;;;;;16.82;56.81;99760.84;6224049;28;96872;-66
2022/10/18 04:46:22;;;;;;;;;15.40;14.40;;;;;16.83;56.71;99764.41;6205017;28;97085;-65
2022/10/18 04:49:25;;;;;;;;;16.50;16.00;;;;;16.72;56.68;99766.09;6213819;28;96677;-66
2022/10/18 04:52:31;;;;;;;;;15.60;15.00;;;;;16.53;56.79;99752.84;6214964;28;97042;-66
2022/10/18 04:55:34;;;;;;;;;18.60;17.60;;;;;16.59;56.34;99765.53;6218086;28;98042;-66
2022/10/18 04:58:38;;;;;;;;;19.00;16.00;;;;;16.50;56.56;99769.66;6189780;28;98348;-66
2022/10/18 05:01:41;;;;;;;;;16.80;15.00;;;;;16.47;56.38;99774.50;6221239;28;96215;-66
2022/10/18 05:04:44;;;;;;;;;16.00;16.00;;;;;16.41;56.26;99766.47;6228076;28;96142;-66
2022/10/18 05:07:49;;;;;;;;;17.00;17.00;;;;;16.29;55.94;99766.47;6207974;28;96543;-66
2022/10/18 05:10:52;;;;;;;;;14.00;13.75;;;;;16.13;55.44;99764.47;6186097;28;96771;-66
2022/10/18 05:13:55;;;;;;;;;18.00;16.40;;;;;15.98;55.37;99762.19;6221004;28;96358;-66
2022/10/18 05:16:59;;;;;;;;;17.60;16.60;;;;;15.83;55.63;99763.75;6210780;28;96452;-66
2022/10/18 05:20:03;;;;;;;;;17.00;15.00;;;;;15.72;55.64;99773.53;6209721;28;96740;-65
2022/10/18 05:23:09;;;;;;;;;17.25;15.25;;;;;15.66;55.78;99779.91;6198326;28;99682;-66
2022/10/18 05:26:12;;;;;;;;;20.00;19.00;;;;;15.58;55.71;99791.13;6220624;28;97009;-66
2022/10/18 05:29:16;;;;;;;;;19.00;18.40;;;;;15.67;56.97;99794.31;6219000;28;96865;-66
2022/10/18 05:32:19;;;;;;;;;17.20;16.20;;;;;15.83;57.15;99789.03;6205417;28;96388;-66
2022/10/18 05:35:23;;;;;;;;;19.60;18.00;;;;;15.93;56.69;99785.75;6217077;28;96867;-66
2022/10/18 05:38:29;;;;;;;;;18.00;17.00;;;;;15.99;55.91;99787.50;6216135;28;96454;-66
2022/10/18 05:41:33;;;;;;;;;16.75;15.00;;;;;16.04;54.45;99790.34;6201513;28;97231;-66
2022/10/18 05:44:37;;;;;;;;;15.00;15.00;;;;;15.97;53.61;99795.94;6220251;28;96397;-65
2022/10/18 05:47:40;;;;;;;;;18.00;17.40;;;;;15.86;53.90;99793.19;6217491;28;96535;-66
2022/10/18 05:50:44;;;;;;;;;14.33;14.00;;;;;15.78;53.97;99794.34;6223914;28;97069;-66
2022/10/18 05:53:49;;;;;;;;;13.00;12.20;;;;;15.80;54.27;99784.06;6215743;28;96525;-66
2022/10/18 05:56:52;;;;;;;;;17.00;14.75;;;;;15.97;54.17;99782.31;6214492;28;96233;-66
2022/10/18 05:59:56;;;;;;;;;16.00;15.00;;;;;16.28;54.27;99793.91;6229262;28;96643;-66
2022/10/18 06:02:59;;;;;;;;;17.75;17.00;;;;;16.72;53.93;99797.94;6192720;28;99156;-67
2022/10/18 06:06:05;;;;;;;;;17.00;15.00;;;;;17.24;53.23;99796.88;6213946;28;98415;-66
2022/10/18 06:09:10;;;;;;;;;21.00;19.00;;;;;17.92;52.15;99795.09;6215965;28;96973;-67
2022/10/18 06:12:14;;;;;;;;;17.60;17.00;;;;;18.65;50.45;99794.91;6211720;28;96293;-66
2022/10/18 06:15:17;;;;;;;;;17.00;16.00;;;;;19.33;48.74;99785.34;6225740;28;96398;-66
2022/10/18 06:18:20;;;;;;;;;19.20;19.20;;;;;20.37;46.42;99809.63;6212031;28;96852;-67
2022/10/18 06:21:24;;;;;;;;;20.00;17.20;;;;;21.99;42.49;99802.88;6211366;28;96303;-67
2022/10/18 06:24:29;;;;;;;;;27.50;25.00;;;;;24.26;38.87;99803.91;6209481;28;98432;-67
2022/10/18 06:27:33;;;;;;;;;30.00;28.00;;;;;26.74;33.95;99806.84;6222804;28;97032;-67
2022/10/18 06:30:37;;;;;;;;;28.00;27.60;;;;;28.89;29.70;99807.97;6227156;28;96406;-66
2022/10/18 06:33:40;;;;;;;;;29.00;28.40;;;;;30.83;27.61;99809.88;6212813;28;96399;-66
2022/10/18 06:36:43;;;;;;;;;28.00;27.00;;;;;32.52;24.63;99814.91;6215157;28;96444;-66
2022/10/18 06:39:48;;;;;;;;;27.00;26.00;;;;;33.86;23.13;99813.00;6222644;28;96286;-67
2022/10/18 06:42:51;;;;;;;;;23.00;21.60;;;;;35.00;21.38;99815.00;6210810;28;99609;-66
2022/10/18 06:46:08;;;;;;;;;22.00;20.75;;;;;36.09;20.01;99815.94;6209743;28;97291;-67
2022/10/18 06:49:13;;;;;;;;;21.40;19.60;;;;;37.08;19.25;99817.91;6222461;28;96526;-66
2022/10/18 06:52:24;;;;;;;;;18.50;18.50;;;;;37.97;17.71;99816.41;6221358;28;98580;-67
2022/10/18 06:55:30;;;;;;;;;21.50;19.75;;;;;38.75;17.32;99811.69;6222502;28;96522;-67
2022/10/18 06:58:34;;;;;;;;;17.20;16.20;;;;;39.33;17.30;99820.31;6223684;28;96345;-66
2022/10/18 07:01:37;;;;;;;;;19.00;18.00;;;;;39.75;16.20;99808.44;6236771;28;96647;-65
2022/10/18 07:04:42;;;;;;;;;18.00;17.40;;;;;40.40;15.91;99807.56;6197404;28;97021;-67
2022/10/18 07:07:45;;;;;;;;;21.40;20.00;;;;;40.66;14.92;99804.41;6215010;28;99509;-69
2022/10/18 07:10:53;;;;;;;;;16.00;16.00;;;;;41.00;14.66;99802.81;6219446;28;98426;-69
2022/10/18 07:14:01;;;;;;;;;16.20;15.20;;;;;41.44;14.95;99795.91;6211334;28;96828;-70
2022/10/18 07:17:05;;;;;;;;;17.00;16.00;;;;;41.93;13.86;99798.63;6196356;28;96979;-70
2022/10/18 07:20:09;;;;;;;;;17.00;16.00;;;;;42.42;13.67;99796.81;6237483;28;96632;-70
2022/10/18 07:23:12;;;;;;;;;15.00;14.00;;;;;43.02;13.30;99801.22;6219609;28;96796;-70
2022/10/18 07:26:20;;;;;;;;;13.00;12.20;;;;;43.57;13.08;99795.47;6213124;28;96392;-70
2022/10/18 07:29:24;;;;;;;;;12.80;12.00;;;;;44.04;12.47;99793.69;6228636;28;97408;-70
2022/10/18 07:32:27;;;;;;;;;16.00;14.00;;;;;44.42;12.58;99789.56;6213021;28;96405;-69
2022/10/18 07:35:30;;;;;;;;;13.00;12.00;;;;;44.70;12.50;99782.66;6212960;28;96337;-70
2022/10/18 07:38:34;;;;;;;;;13.40;13.00;;;;;44.70;12.36;99779.81;6208325;28;98424;-70
2022/10/18 07:41:39;;;;;;;;;12.60;12.60;;;;;44.78;11.52;99783.31;6194921;28;96683;-70
2022/10/18 07:44:42;;;;;;;;;13.80;12.40;;;;;44.91;10.86;99780.69;6194281;28;96309;-70
2022/10/18 07:47:45;;;;;;;;;11.00;10.00;;;;;45.52;11.51;99781.22;6196483;28;96754;-70
2022/10/18 07:50:48;;;;;;;;;13.00;11.40;;;;;45.59;10.43;99778.25;6210701;28;96419;-71
2022/10/18 07:53:52;;;;;;;;;11.60;11.60;;;;;45.67;10.24;99782.56;6226234;28;96408;-70
2022/10/18 07:56:56;;;;;;;;;12.00;11.00;;;;;46.28;10.99;99768.69;6215643;28;96793;-70
2022/10/18 08:00:00;;;;;;;;;12.50;11.00;;;;;46.56;9.80;99777.81;6216853;28;96695;-70
2022/10/18 08:03:13;;;;;;;;;14.20;11.60;;;;;46.85;9.77;99768.13;6201173;28;97538;-70
2022/10/18 08:06:19;;;;;;;;;12.20;11.00;;;;;47.13;9.74;99765.78;6214912;28;96768;-70
2022/10/18 08:09:22;;;;;;;;;11.00;10.25;;;;;47.31;9.97;99764.06;6214041;28;96263;-70
2022/10/18 08:12:27;;;;;;;;;12.67;12.00;;;;;47.55;9.88;99761.78;6210305;28;98361;-69
2022/10/18 08:15:30;;;;;;;;;14.00;12.60;;;;;47.77;9.86;99765.66;6209854;28;96307;-70
2022/10/18 08:18:34;;;;;;;;;14.00;11.40;;;;;48.26;9.51;99761.75;6208721;28;96438;-70
2022/10/18 08:21:38;;;;;;;;;10.00;10.00;;;;;48.42;9.44;99747.38;6193362;28;96761;-70
2022/10/18 08:24:41;;;;;;;;;11.25;10.00;;;;;48.70;9.52;99752.16;6224629;28;96635;-71
2022/10/18 08:27:46;;;;;;;;;15.00;12.00;;;;;49.00;9.47;99745.00;6212948;28;96756;-70
2022/10/18 08:30:49;;;;;;;;;12.00;12.00;;;;;48.99;9.24;99738.47;6212870;28;96481;-70
2022/10/18 08:33:55;;;;;;;;;9.40;9.40;;;;;49.30;9.09;99738.63;6212179;28;96686;-71
2022/10/18 08:36:58;;;;;;;;;12.50;11.50;;;;;49.16;8.89;99742.00;6208130;28;96643;-71
2022/10/18 08:40:01;;;;;;;;;11.40;11.40;;;;;48.96;8.55;99732.88;6196661;28;98538;-71
2022/10/18 08:43:16;;;;;;;;;10.25;9.25;;;;;49.22;8.88;99736.50;6225257;28;97672;-71
2022/10/18 08:46:24;;;;;;;;;11.00;11.00;;;;;49.31;8.46;99725.91;6209698;28;96861;-71
2022/10/18 08:49:34;;;;;;;;;11.00;10.00;;;;;49.68;8.52;99726.19;6224213;28;96593;-71
2022/10/18 08:52:45;;;;;;;;;11.00;11.00;;;;;49.65;8.55;99713.59;6231277;28;97457;-70
2022/10/18 08:55:52;;;;;;;;;11.00;10.00;;;;;49.79;8.31;99718.00;6196894;28;97468;-71
2022/10/18 08:58:57;;;;;;;;;12.00;11.00;;;;;49.88;8.37;99715.19;6209525;28;96530;-71
2022/10/18 09:02:12;;;;;;;;;11.40;11.40;;;;;49.28;8.68;99712.50;6224046;28;96703;-71
2022/10/18 09:05:23;;;;;;;;;12.00;11.00;;;;;49.16;8.77;99704.78;6194889;28;96223;-71
2022/10/18 09:08:55;;;;;;;;;12.00;10.20;;;;;49.31;8.54;99702.97;6232323;28;96223;-71
2022/10/18 09:12:09;;;;;;;;;12.50;11.00;;;;;49.12;8.96;99681.16;6194716;28;96483;-72
2022/10/18 09:15:24;;;;;;;;;13.00;11.80;;;;;49.44;9.10;99691.47;6193533;28;96606;-71
2022/10/18 09:18:48;;;;;;;;;13.00;11.40;;;;;49.45;8.76;99688.16;6230738;28;96531;-71
2022/10/18 09:21:53;;;;;;;;;11.80;10.00;;;;;49.76;8.63;99681.66;6228947;28;96474;-72
2022/10/18 09:25:04;;;;;;;;;11.00;11.00;;;;;49.79;8.71;99672.13;6212397;28;96573;-72
2022/10/18 09:28:16;;;;;;;;;11.00;11.00;;;;;49.87;8.64;99671.38;6208764;28;96751;-72
2022/10/18 09:31:32;;;;;;;;;12.20;11.20;;;;;49.56;8.67;99670.53;6188744;28;96652;-72
2022/10/18 09:34:42;;;;;;;;;10.00;10.00;;;;;49.10;8.82;99657.94;6221800;28;96172;-71
2022/10/18 09:37:47;;;;;;;;;10.00;10.00;;;;;49.01;8.47;99646.38;6225150;28;96327;-71
2022/10/18 09:40:55;;;;;;;;;11.00;11.00;;;;;48.99;8.87;99648.91;6197012;28;96711;-71
2022/10/18 09:44:05;;;;;;;;;9.60;9.60;;;;;48.49;9.46;99644.09;6212356;28;96514;-71
2022/10/18 09:47:14;;;;;;;;;9.80;8.80;;;;;48.49;9.12;99641.25;6219460;28;97047;-71
2022/10/18 09:50:27;;;;;;;;;8.20;8.20;;;;;48.77;9.43;99639.50;6219245;28;97450;-71
2022/10/18 09:53:37;;;;;;;;;10.00;9.00;;;;;48.49;9.04;99624.88;6219964;28;96917;-71
2022/10/18 09:56:45;;;;;;;;;9.00;9.00;;;;;48.68;9.27;99637.28;6178193;28;97157;-68
2022/10/18 09:59:50;;;;;;;;;8.00;8.00;;;;;48.51;8.88;99630.94;6195021;28;96419;-71
2022/10/18 10:02:55;;;;;;;;;8.00;8.00;;;;;48.56;9.03;99621.78;6211881;28;97546;-71
2022/10/18 10:06:03;;;;;;;;;8.00;8.00;;;;;48.68;9.04;99619.34;6194204;28;96189;-71
2022/10/18 10:09:14;;;;;;;;;8.00;8.00;;;;;48.44;8.90;99613.22;6221925;27;96950;-71
2022/10/18 10:12:30;;;;;;;;;8.00;8.00;;;;;48.42;8.99;99615.75;6198507;28;96714;-71
2022/10/18 10:15:35;;;;;;;;;8.40;7.40;;;;;48.25;9.06;99615.06;6216200;28;96317;-71
2022/10/18 10:18:53;;;;;;;;;7.75;7.00;;;;;48.07;9.11;99606.28;6236311;28;96216;-71
2022/10/18 10:22:02;;;;;;;;;6.60;6.00;;;;;47.99;9.04;99599.22;6217813;28;95886;-71
2022/10/18 10:25:07;;;;;;;;;5.50;5.50;;;;;47.89;8.73;99588.91;6198401;28;96361;-71
2022/10/18 10:28:16;;;;;;;;;6.00;6.00;;;;;47.80;9.07;99590.38;6226961;28;96943;-71
2022/10/18 10:31:27;;;;;;;;;6.00;6.00;;;;;47.55;8.92;99583.84;6211201;28;96739;-71
2022/10/18 10:34:32;;;;;;;;;8.00;7.00;;;;;47.60;9.11;99577.56;6226356;28;96394;-71
2022/10/18 10:37:37;;;;;;;;;8.00;8.00;;;;;47.60;9.82;99571.84;6198108;28;96452;-71
2022/10/18 10:40:49;;;;;;;;;7.20;6.80;;;;;47.62;9.33;99566.50;6222242;28;97582;-71
2022/10/18 10:43:52;;;;;;;;;10.00;8.00;;;;;47.61;9.27;99559.94;6218744;28;96222;-71
2022/10/18 10:46:56;;;;;;;;;7.00;7.00;;;;;47.52;9.52;99551.25;6197617;28;96622;-71
2022/10/18 10:50:11;;;;;;;;;7.40;7.40;;;;;47.54;9.20;99545.09;6197370;28;97197;-71
2022/10/18 10:53:30;;;;;;;;;7.00;7.00;;;;;47.43;9.26;99551.13;6204830;28;96805;-70
2022/10/18 10:56:37;;;;;;;;;6.60;6.60;;;;;47.26;9.30;99532.50;6212143;28;96635;-70
2022/10/18 10:59:44;;;;;;;;;6.40;6.00;;;;;47.22;9.33;99526.06;6213769;28;96473;-69
2022/10/18 11:02:48;;;;;;;;;6.00;6.00;;;;;47.31;9.39;99521.28;6217955;28;96635;-70
2022/10/18 11:06:31;;;;;;;;;6.00;6.00;;;;;47.49;9.23;99517.91;6209226;28;96875;-71
2022/10/18 11:09:49;;;;;;;;;6.00;6.00;;;;;47.53;9.10;99518.56;6222951;28;96712;-71
2022/10/18 11:13:01;;;;;;;;;7.00;7.00;;;;;47.34;9.17;99506.13;6201215;28;98884;-71
2022/10/18 11:16:11;;;;;;;;;6.00;5.00;;;;;47.05;9.14;99504.56;6191954;28;100041;-71
2022/10/18 11:19:32;;;;;;;;;5.60;5.60;;;;;46.82;8.84;99500.72;6213307;28;96758;-70
2022/10/18 11:22:42;;;;;;;;;6.00;6.00;;;;;46.90;9.45;99492.78;6215944;28;96322;-71
2022/10/18 11:26:02;;;;;;;;;6.40;6.40;;;;;46.83;9.85;99487.25;6195142;28;96706;-71
2022/10/18 11:29:27;;;;;;;;;7.00;7.00;;;;;46.95;9.32;99480.81;6219702;28;97356;-70
2022/10/18 11:32:37;;;;;;;;;6.00;6.00;;;;;46.91;9.92;99474.41;6216927;28;97129;-68
2022/10/18 11:35:48;;;;;;;;;6.40;5.00;;;;;47.00;9.35;99468.03;6223003;28;96612;-70
2022/10/18 11:39:02;;;;;;;;;7.00;6.00;;;;;47.05;9.40;99467.47;6214835;28;96438;-71
2022/10/18 11:42:16;;;;;;;;;8.00;8.00;;;;;46.79;9.22;99463.72;6224557;28;96293;-71
2022/10/18 11:45:33;;;;;;;;;8.40;8.40;;;;;46.47;9.49;99456.91;6216815;28;96374;-70
2022/10/18 11:49:01;;;;;;;;;8.75;8.75;;;;;46.44;9.73;99465.53;6211068;28;96912;-70
2022/10/18 11:52:13;;;;;;;;;9.00;9.00;;;;;46.31;9.98;99447.59;6215665;28;96320;-71
2022/10/18 11:55:29;;;;;;;;;10.00;8.00;;;;;46.22;10.09;99444.59;6210385;28;96938;-71
2022/10/18 11:58:51;;;;;;;;;6.60;6.60;;;;;46.04;10.32;99439.34;6212265;28;96648;-70
2022/10/18 12:02:11;;;;;;;;;8.00;8.00;;;;;45.81;10.22;99436.69;6211998;28;97012;-69
2022/10/18 12:05:15;;;;;;;;;8.00;7.00;;;;;45.08;10.43;99430.28;6208848;28;96659;-70
2022/10/18 12:08:33;;;;;;;;;7.40;7.00;;;;;44.43;10.89;99392.25;6209208;28;96551;-69
2022/10/18 12:11:44;;;;;;;;;8.80;7.00;;;;;43.92;10.70;99416.41;6217118;28;96347;-70
2022/10/18 12:14:54;;;;;;;;;7.50;7.00;;;;;43.01;11.05;99431.56;6212419;28;96322;-69
2022/10/18 12:18:01;;;;;;;;;9.00;8.75;;;;;41.91;11.81;99412.22;6219873;28;96873;-70
2022/10/18 12:21:06;;;;;;;;;8.80;8.20;;;;;41.10;12.39;99413.66;6224899;28;97065;-70
2022/10/18 12:24:14;;;;;;;;;8.40;8.00;;;;;40.27;12.23;99410.78;6227529;28;96305;-69
2022/10/18 12:27:28;;;;;;;;;10.00;10.00;;;;;39.45;13.20;99399.53;6197701;28;96435;-69
2022/10/18 12:30:41;;;;;;;;;11.40;11.00;;;;;38.72;13.75;99412.22;6234804;27;96879;-70
2022/10/18 12:33:48;;;;;;;;;11.00;9.40;;;;;37.82;14.08;99404.47;6221958;28;97166;-69
2022/10/18 12:37:09;;;;;;;;;11.00;9.00;;;;;37.19;14.97;99396.28;6223318;28;96226;-70
2022/10/18 12:40:17;;;;;;;;;11.00;11.00;;;;;36.70;15.17;99393.72;6226191;28;96444;-70
2022/10/18 12:43:29;;;;;;;;;12.40;11.00;;;;;36.36;15.90;99387.28;6220970;28;96923;-70
2022/10/18 12:46:48;;;;;;;;;10.00;10.00;;;;;36.04;15.64;99387.59;6226143;28;96277;-70
2022/10/18 12:50:00;;;;;;;;;11.00;11.00;;;;;35.78;16.08;99373.59;6202632;28;97832;-70
2022/10/18 12:53:25;;;;;;;;;11.00;10.00;;;;;35.58;16.48;99374.84;6208345;28;97887;-70
2022/10/18 12:56:36;;;;;;;;;10.00;9.00;;;;;35.42;16.45;99363.78;6220591;28;96312;-69
2022/10/18 12:59:41;;;;;;;;;12.00;11.60;;;;;35.35;16.90;99366.47;6223763;28;96590;-70
2022/10/18 13:02:44;;;;;;;;;10.60;9.00;;;;;35.36;16.71;99361.66;6220844;28;96525;-69
2022/10/18 13:05:57;;;;;;;;;12.00;11.33;;;;;34.99;16.85;99361.41;6214619;28;96443;-70
2022/10/18 13:09:21;;;;;;;;;10.00;10.00;;;;;34.76;17.07;99369.78;6189478;28;96867;-69
2022/10/18 13:13:07;;;;;;;;;11.20;11.00;;;;;34.31;17.27;99362.84;6219758;28;97400;-69
2022/10/18 13:16:41;;;;;;;;;12.00;10.00;;;;;33.87;17.47;99348.25;6220428;28;96317;-70
2022/10/18 13:19:55;;;;;;;;;11.00;10.50;;;;;33.38;17.63;99342.28;6210822;28;96670;-70
2022/10/18 13:23:36;;;;;;;;;11.00;10.00;;;;;33.00;18.16;99328.13;6219921;28;97315;-70
2022/10/18 13:26:51;;;;;;;;;10.00;10.00;;;;;32.98;18.47;99327.69;6206416;28;96726;-69
2022/10/18 13:30:38;;;;;;;;;10.50;9.00;;;;;32.99;19.20;99323.69;6221291;28;97625;-70
2022/10/18 13:33:43;;;;;;;;;11.40;10.40;;;;;32.65;18.95;99326.00;6211779;28;96404;-67
2022/10/18 13:36:56;;;;;;;;;11.60;10.00;;;;;32.41;18.99;99312.16;6212375;28;97279;-70
2022/10/18 13:40:15;;;;;;;;;12.00;12.00;;;;;32.06;19.46;99308.34;6218148;28;96224;-70
2022/10/18 13:43:56;;;;;;;;;12.00;10.00;;;;;31.94;19.70;99317.53;6224178;28;96478;-70
2022/10/18 13:47:32;;;;;;;;;10.00;9.00;;;;;31.90;20.12;99296.28;6212831;28;96570;-70
2022/10/18 13:50:41;;;;;;;;;11.00;10.60;;;;;31.85;20.38;99288.19;6215296;28;96652;-69
2022/10/18 13:53:55;;;;;;;;;10.00;10.00;;;;;31.66;20.41;99289.63;6213942;28;97518;-70
2022/10/18 13:57:20;;;;;;;;;12.00;12.00;;;;;31.42;20.78;99289.63;6220752;28;96404;-70
2022/10/18 14:00:43;;;;;;;;;12.00;12.00;;;;;31.50;20.66;99285.88;6223102;28;97152;-70
2022/10/18 14:04:45;;;;;;;;;12.25;11.25;;;;;31.57;21.33;99290.91;6217217;28;97124;-70
2022/10/18 14:07:51;;;;;;;;;12.00;11.00;;;;;31.56;20.97;99275.31;6204054;28;98865;-69
2022/10/18 14:11:03;;;;;;;;;11.00;11.00;;;;;31.47;21.37;99280.22;6219437;28;96525;-69
2022/10/18 14:14:14;;;;;;;;;13.00;12.40;;;;;31.32;21.56;99276.16;6218817;28;96888;-69
2022/10/18 14:17:28;;;;;;;;;12.60;11.00;;;;;31.30;21.44;99282.09;6220430;28;96395;-69
2022/10/18 14:20:36;;;;;;;;;13.00;12.00;;;;;31.17;22.14;99279.66;6213863;28;96531;-69
2022/10/18 14:24:01;;;;;;;;;12.60;11.40;;;;;30.98;22.16;99278.22;6220773;28;96389;-69
2022/10/18 14:27:17;;;;;;;;;14.60;13.00;;;;;30.65;22.37;99259.97;6222739;28;97519;-70
2022/10/18 14:30:21;;;;;;;;;13.20;13.00;;;;;30.35;23.23;99260.09;6219048;28;96265;-70
2022/10/18 14:33:32;;;;;;;;;12.00;12.00;;;;;30.08;23.17;99255.97;6191493;28;96856;-70